Prairie Hill, TX (76678)

1:30 PM CDT on July 29, 2016 (GMT -0500)
KTXHUBBA2 | | Change Station

Elev 525 ft 31.79 °N, 96.75 °W | Updated 10 minutes ago

Scattered Clouds
Scattered Clouds
89.8 °F
Feels Like 102 °F
N
5.0
Wind Variable Wind from West
Gusts 7.0 mph

Today
High -- | Low -- °F
--% Chance of Precip.
Yesterday
High -- | Low -- °F
Precip. -- in
Pressure 30.04 in
Visibility 10.0 miles
Clouds Scattered Clouds 3800 ft
Heat Index 102 °F
Dew Point 76 °F
Humidity 64%
Rainfall in
Snow Depth Not available.
6:41 AM 8:25 PM
Waning Crescent, 20% visible
METAR KLXY 291815Z AUTO 21009G15KT 10SM SCT038 33/22 A3004 RMK AO2 T03250223
Pressure 30.04 in
Visibility 10.0 miles
Clouds Scattered Clouds 3800 ft
Heat Index 102 °F
Dew Point 76 °F
Humidity 64%
Rainfall in
Snow Depth Not available.
6:41 AM 8:25 PM
Waning Crescent, 20% visible
METAR KLXY 291815Z AUTO 21009G15KT 10SM SCT038 33/22 A3004 RMK AO2 T03250223

10-Day Weather Forecast

Almanac

Astronomy

Jul. 29, 2016 Rise Set
Actual Time
Civil Twilight
Nautical Twilight
Astronomical Twilight
Moon
Length of Visible Light
Length of Day
Tomorrow will be .
, % of the Moon is Illuminated

Today's Extremes

State Highs State Lows

Community

WunderPhotos

Upload Photos

1,928,392 photos uploaded!

WunderBlog® & News

Nearby

Air Quality

  Air Quality AQ Index Pollutant
Not available.

Snow Depth

Station Depth Elevation

Earthquake Activity

City Distance Mag. Time & Date
Minimum magnitude displayed is 2.5.

Coastal Water Temperatures

Place Temperature

Stations

Nearby Weather Stations

Station Location Temp. Windchill Dew Point Humidity Wind Precip. Elev Updated Type
                   

Watches & Warnings

There are currently no watches in effect.